sensor_id;sensor_type;location;lat;lon;timestamp;temperature;humidity
21799;DHT22;24973;47.178;15.316;2023-04-25T00:01:45;8.10;99.90
21799;DHT22;24973;47.178;15.316;2023-04-25T00:04:33;8.10;99.90
21799;DHT22;24973;47.178;15.316;2023-04-25T00:07:22;7.90;99.90
21799;DHT22;24973;47.178;15.316;2023-04-25T00:10:11;7.80;99.90
21799;DHT22;24973;47.178;15.316;2023-04-25T00:13:00;7.80;99.90
21799;DHT22;24973;47.178;15.316;2023-04-25T00:15:50;7.80;99.90
21799;DHT22;24973;47.178;15.316;2023-04-25T00:18:40;7.90;99.90
21799;DHT22;24973;47.178;15.316;2023-04-25T00:21:30;7.90;99.90
21799;DHT22;24973;47.178;15.316;2023-04-25T00:24:19;7.90;99.90
21799;DHT22;24973;47.178;15.316;2023-04-25T00:27:08;7.90;99.90
21799;DHT22;24973;47.178;15.316;2023-04-25T00:29:57;7.90;99.90
21799;DHT22;24973;47.178;15.316;2023-04-25T00:32:45;7.90;99.90
21799;DHT22;24973;47.178;15.316;2023-04-25T00:35:36;7.80;99.90
21799;DHT22;24973;47.178;15.316;2023-04-25T00:38:24;7.80;99.90
21799;DHT22;24973;47.178;15.316;2023-04-25T00:41:13;7.80;99.90
21799;DHT22;24973;47.178;15.316;2023-04-25T00:44:03;7.80;99.90
21799;DHT22;24973;47.178;15.316;2023-04-25T00:46:52;7.70;99.90
21799;DHT22;24973;47.178;15.316;2023-04-25T00:49:42;7.70;99.90
21799;DHT22;24973;47.178;15.316;2023-04-25T00:52:32;7.50;99.90
21799;DHT22;24973;47.178;15.316;2023-04-25T00:55:21;7.40;99.90
21799;DHT22;24973;47.178;15.316;2023-04-25T00:58:10;7.30;99.90
21799;DHT22;24973;47.178;15.316;2023-04-25T01:00:59;7.20;99.90
21799;DHT22;24973;47.178;15.316;2023-04-25T01:03:49;7.10;99.90
21799;DHT22;24973;47.178;15.316;2023-04-25T01:06:38;7.10;99.90
21799;DHT22;24973;47.178;15.316;2023-04-25T01:09:30;7.10;99.90
21799;DHT22;24973;47.178;15.316;2023-04-25T01:12:19;7.00;99.90
21799;DHT22;24973;47.178;15.316;2023-04-25T01:15:08;6.80;99.90
21799;DHT22;24973;47.178;15.316;2023-04-25T01:17:57;6.80;99.90
21799;DHT22;24973;47.178;15.316;2023-04-25T01:20:50;6.80;99.90
21799;DHT22;24973;47.178;15.316;2023-04-25T01:23:41;6.80;99.90
21799;DHT22;24973;47.178;15.316;2023-04-25T01:26:31;6.70;99.90
21799;DHT22;24973;47.178;15.316;2023-04-25T01:29:20;6.70;99.90
21799;DHT22;24973;47.178;15.316;2023-04-25T01:32:09;6.50;99.90
21799;DHT22;24973;47.178;15.316;2023-04-25T01:34:58;6.50;99.90
21799;DHT22;24973;47.178;15.316;2023-04-25T01:37:47;6.40;99.90
21799;DHT22;24973;47.178;15.316;2023-04-25T01:40:39;6.50;99.90
21799;DHT22;24973;47.178;15.316;2023-04-25T01:43:28;6.50;99.90
21799;DHT22;24973;47.178;15.316;2023-04-25T01:46:17;6.40;99.90
21799;DHT22;24973;47.178;15.316;2023-04-25T01:49:06;6.30;99.90
21799;DHT22;24973;47.178;15.316;2023-04-25T01:51:55;6.20;99.90
21799;DHT22;24973;47.178;15.316;2023-04-25T01:54:44;6.10;99.90
21799;DHT22;24973;47.178;15.316;2023-04-25T01:57:34;6.10;99.90
21799;DHT22;24973;47.178;15.316;2023-04-25T02:00:23;6.10;99.90
21799;DHT22;24973;47.178;15.316;2023-04-25T02:03:12;6.00;99.90
21799;DHT22;24973;47.178;15.316;2023-04-25T02:06:00;5.90;99.90
21799;DHT22;24973;47.178;15.316;2023-04-25T02:08:49;5.80;99.90
21799;DHT22;24973;47.178;15.316;2023-04-25T02:11:38;5.80;99.90
21799;DHT22;24973;47.178;15.316;2023-04-25T02:14:28;5.90;99.90
21799;DHT22;24973;47.178;15.316;2023-04-25T02:17:17;5.80;99.90
21799;DHT22;24973;47.178;15.316;2023-04-25T02:20:06;5.80;99.90
21799;DHT22;24973;47.178;15.316;2023-04-25T02:22:55;5.70;99.90
21799;DHT22;24973;47.178;15.316;2023-04-25T02:25:44;5.70;99.90
21799;DHT22;24973;47.178;15.316;2023-04-25T02:28:33;5.70;99.90
21799;DHT22;24973;47.178;15.316;2023-04-25T02:31:23;5.70;99.90
21799;DHT22;24973;47.178;15.316;2023-04-25T02:34:12;5.80;99.90
21799;DHT22;24973;47.178;15.316;2023-04-25T02:37:00;5.80;99.90
21799;DHT22;24973;47.178;15.316;2023-04-25T02:39:49;5.80;99.90
21799;DHT22;24973;47.178;15.316;2023-04-25T02:42:38;5.70;99.90
21799;DHT22;24973;47.178;15.316;2023-04-25T02:45:27;5.60;99.90
21799;DHT22;24973;47.178;15.316;2023-04-25T02:48:17;5.50;99.90
21799;DHT22;24973;47.178;15.316;2023-04-25T02:51:05;5.40;99.90
21799;DHT22;24973;47.178;15.316;2023-04-25T02:53:54;5.30;99.90
21799;DHT22;24973;47.178;15.316;2023-04-25T02:56:43;5.30;99.90
21799;DHT22;24973;47.178;15.316;2023-04-25T02:59:32;5.20;99.90
21799;DHT22;24973;47.178;15.316;2023-04-25T03:02:21;5.20;99.90
21799;DHT22;24973;47.178;15.316;2023-04-25T03:05:11;5.30;99.90
21799;DHT22;24973;47.178;15.316;2023-04-25T03:07:59;5.30;99.90
21799;DHT22;24973;47.178;15.316;2023-04-25T03:10:48;5.40;99.90
21799;DHT22;24973;47.178;15.316;2023-04-25T03:13:39;5.40;99.90
21799;DHT22;24973;47.178;15.316;2023-04-25T03:16:27;5.40;99.90
21799;DHT22;24973;47.178;15.316;2023-04-25T03:19:16;5.30;99.90
21799;DHT22;24973;47.178;15.316;2023-04-25T03:22:07;5.30;99.90
21799;DHT22;24973;47.178;15.316;2023-04-25T03:24:55;5.20;99.90
21799;DHT22;24973;47.178;15.316;2023-04-25T03:27:44;5.20;99.90
21799;DHT22;24973;47.178;15.316;2023-04-25T03:30:33;5.10;99.90
21799;DHT22;24973;47.178;15.316;2023-04-25T03:33:22;5.10;99.90
21799;DHT22;24973;47.178;15.316;2023-04-25T03:36:10;5.10;99.90
21799;DHT22;24973;47.178;15.316;2023-04-25T03:39:00;5.20;99.90
21799;DHT22;24973;47.178;15.316;2023-04-25T03:41:49;5.20;99.90
21799;DHT22;24973;47.178;15.316;2023-04-25T03:44:38;5.20;99.90
21799;DHT22;24973;47.178;15.316;2023-04-25T03:47:27;5.20;99.90
21799;DHT22;24973;47.178;15.316;2023-04-25T03:50:15;5.20;99.90
21799;DHT22;24973;47.178;15.316;2023-04-25T03:53:04;5.10;99.90
21799;DHT22;24973;47.178;15.316;2023-04-25T03:55:54;5.10;99.90
21799;DHT22;24973;47.178;15.316;2023-04-25T03:58:43;5.00;99.90
21799;DHT22;24973;47.178;15.316;2023-04-25T04:01:31;5.00;99.90
21799;DHT22;24973;47.178;15.316;2023-04-25T04:04:20;4.90;99.90
21799;DHT22;24973;47.178;15.316;2023-04-25T04:07:09;4.70;99.90
21799;DHT22;24973;47.178;15.316;2023-04-25T04:09:58;4.80;99.90
21799;DHT22;24973;47.178;15.316;2023-04-25T04:12:48;4.80;99.90
21799;DHT22;24973;47.178;15.316;2023-04-25T04:15:37;4.70;99.90
21799;DHT22;24973;47.178;15.316;2023-04-25T04:18:26;4.60;99.90
21799;DHT22;24973;47.178;15.316;2023-04-25T04:21:14;4.60;99.90
21799;DHT22;24973;47.178;15.316;2023-04-25T04:24:03;4.50;99.90
21799;DHT22;24973;47.178;15.316;2023-04-25T04:26:52;4.20;99.90
21799;DHT22;24973;47.178;15.316;2023-04-25T04:29:43;4.60;99.90
21799;DHT22;24973;47.178;15.316;2023-04-25T04:32:32;4.60;99.90
21799;DHT22;24973;47.178;15.316;2023-04-25T04:35:21;4.70;99.90
21799;DHT22;24973;47.178;15.316;2023-04-25T04:38:10;4.70;99.90
21799;DHT22;24973;47.178;15.316;2023-04-25T04:40:59;4.60;99.90
21799;DHT22;24973;47.178;15.316;2023-04-25T04:43:48;4.50;99.90
21799;DHT22;24973;47.178;15.316;2023-04-25T04:46:38;4.50;99.90
21799;DHT22;24973;47.178;15.316;2023-04-25T04:49:29;4.60;99.90
21799;DHT22;24973;47.178;15.316;2023-04-25T04:52:17;4.70;99.90
21799;DHT22;24973;47.178;15.316;2023-04-25T04:55:07;4.70;99.90
21799;DHT22;24973;47.178;15.316;2023-04-25T04:57:56;4.60;99.90
21799;DHT22;24973;47.178;15.316;2023-04-25T05:00:45;4.70;99.90
21799;DHT22;24973;47.178;15.316;2023-04-25T05:03:35;4.70;99.90
21799;DHT22;24973;47.178;15.316;2023-04-25T05:06:24;4.70;99.90
21799;DHT22;24973;47.178;15.316;2023-04-25T05:09:13;4.90;99.90
21799;DHT22;24973;47.178;15.316;2023-04-25T05:12:02;5.00;99.90
21799;DHT22;24973;47.178;15.316;2023-04-25T05:14:51;5.00;99.90
21799;DHT22;24973;47.178;15.316;2023-04-25T05:17:40;5.00;99.90
21799;DHT22;24973;47.178;15.316;2023-04-25T05:20:30;5.00;99.90
21799;DHT22;24973;47.178;15.316;2023-04-25T05:23:19;5.10;99.90
21799;DHT22;24973;47.178;15.316;2023-04-25T05:26:07;5.20;99.90
21799;DHT22;24973;47.178;15.316;2023-04-25T05:29:00;5.30;99.90
21799;DHT22;24973;47.178;15.316;2023-04-25T05:31:49;5.30;99.90
21799;DHT22;24973;47.178;15.316;2023-04-25T05:34:38;5.40;99.90
21799;DHT22;24973;47.178;15.316;2023-04-25T05:37:28;5.40;99.90
21799;DHT22;24973;47.178;15.316;2023-04-25T05:40:17;5.60;99.90
21799;DHT22;24973;47.178;15.316;2023-04-25T05:43:06;5.70;99.90
21799;DHT22;24973;47.178;15.316;2023-04-25T05:45:54;6.00;99.90
21799;DHT22;24973;47.178;15.316;2023-04-25T05:48:43;6.10;99.90
21799;DHT22;24973;47.178;15.316;2023-04-25T05:51:32;6.20;99.90
21799;DHT22;24973;47.178;15.316;2023-04-25T05:54:22;6.30;99.90
21799;DHT22;24973;47.178;15.316;2023-04-25T05:57:19;6.30;99.90
21799;DHT22;24973;47.178;15.316;2023-04-25T06:00:10;6.40;99.90
21799;DHT22;24973;47.178;15.316;2023-04-25T06:02:59;6.40;99.90
21799;DHT22;24973;47.178;15.316;2023-04-25T06:05:49;6.50;99.90
21799;DHT22;24973;47.178;15.316;2023-04-25T06:08:38;6.60;99.90
21799;DHT22;24973;47.178;15.316;2023-04-25T06:11:28;6.80;99.90
21799;DHT22;24973;47.178;15.316;2023-04-25T06:14:16;6.90;99.90
21799;DHT22;24973;47.178;15.316;2023-04-25T06:17:05;7.00;99.90
21799;DHT22;24973;47.178;15.316;2023-04-25T06:19:55;7.00;99.90
21799;DHT22;24973;47.178;15.316;2023-04-25T06:22:44;7.20;99.90
21799;DHT22;24973;47.178;15.316;2023-04-25T06:25:32;7.20;99.90
21799;DHT22;24973;47.178;15.316;2023-04-25T06:28:22;7.40;99.90
21799;DHT22;24973;47.178;15.316;2023-04-25T06:31:11;7.50;99.90
21799;DHT22;24973;47.178;15.316;2023-04-25T06:34:00;7.70;99.90
21799;DHT22;24973;47.178;15.316;2023-04-25T06:36:49;8.00;99.90
21799;DHT22;24973;47.178;15.316;2023-04-25T06:39:38;8.20;99.90
21799;DHT22;24973;47.178;15.316;2023-04-25T06:42:27;8.40;99.90
21799;DHT22;24973;47.178;15.316;2023-04-25T06:45:17;8.60;99.90
21799;DHT22;24973;47.178;15.316;2023-04-25T06:48:06;8.80;99.90
21799;DHT22;24973;47.178;15.316;2023-04-25T06:50:54;9.00;99.90
21799;DHT22;24973;47.178;15.316;2023-04-25T06:53:43;9.20;99.90
21799;DHT22;24973;47.178;15.316;2023-04-25T06:56:32;9.40;99.90
21799;DHT22;24973;47.178;15.316;2023-04-25T06:59:21;9.60;99.90
21799;DHT22;24973;47.178;15.316;2023-04-25T07:02:12;9.80;99.90
21799;DHT22;24973;47.178;15.316;2023-04-25T07:05:01;10.10;99.90
21799;DHT22;24973;47.178;15.316;2023-04-25T07:07:51;10.20;99.90
21799;DHT22;24973;47.178;15.316;2023-04-25T07:10:40;10.60;99.90
21799;DHT22;24973;47.178;15.316;2023-04-25T07:13:28;10.80;99.90
21799;DHT22;24973;47.178;15.316;2023-04-25T07:16:17;11.10;99.90
21799;DHT22;24973;47.178;15.316;2023-04-25T07:19:07;11.20;99.90
21799;DHT22;24973;47.178;15.316;2023-04-25T07:21:56;11.30;99.90
21799;DHT22;24973;47.178;15.316;2023-04-25T07:24:44;11.50;99.90
21799;DHT22;24973;47.178;15.316;2023-04-25T07:27:35;11.60;99.90
21799;DHT22;24973;47.178;15.316;2023-04-25T07:30:24;11.70;99.90
21799;DHT22;24973;47.178;15.316;2023-04-25T07:33:13;11.90;99.90
21799;DHT22;24973;47.178;15.316;2023-04-25T07:36:03;12.20;99.90
21799;DHT22;24973;47.178;15.316;2023-04-25T07:38:52;12.40;99.90
21799;DHT22;24973;47.178;15.316;2023-04-25T07:41:41;12.60;99.90
21799;DHT22;24973;47.178;15.316;2023-04-25T07:44:29;12.70;99.90
21799;DHT22;24973;47.178;15.316;2023-04-25T07:47:18;12.90;99.90
21799;DHT22;24973;47.178;15.316;2023-04-25T07:50:08;12.90;98.00
21799;DHT22;24973;47.178;15.316;2023-04-25T07:52:59;13.00;98.40
21799;DHT22;24973;47.178;15.316;2023-04-25T07:55:48;13.30;97.90
21799;DHT22;24973;47.178;15.316;2023-04-25T07:58:36;13.60;97.90
21799;DHT22;24973;47.178;15.316;2023-04-25T08:01:25;14.00;96.40
21799;DHT22;24973;47.178;15.316;2023-04-25T08:04:14;14.00;93.50
21799;DHT22;24973;47.178;15.316;2023-04-25T08:07:02;13.70;92.30
21799;DHT22;24973;47.178;15.316;2023-04-25T08:09:53;13.70;94.10
21799;DHT22;24973;47.178;15.316;2023-04-25T08:12:42;13.70;90.50
21799;DHT22;24973;47.178;15.316;2023-04-25T08:15:31;13.80;87.50
21799;DHT22;24973;47.178;15.316;2023-04-25T08:18:20;13.90;86.10
21799;DHT22;24973;47.178;15.316;2023-04-25T08:21:08;14.00;85.60
21799;DHT22;24973;47.178;15.316;2023-04-25T08:23:58;14.10;86.20
21799;DHT22;24973;47.178;15.316;2023-04-25T08:26:52;14.40;83.00
21799;DHT22;24973;47.178;15.316;2023-04-25T08:29:41;14.60;80.40
21799;DHT22;24973;47.178;15.316;2023-04-25T08:32:30;14.60;78.80
21799;DHT22;24973;47.178;15.316;2023-04-25T08:35:19;14.50;80.40
21799;DHT22;24973;47.178;15.316;2023-04-25T08:38:08;14.30;75.60
21799;DHT22;24973;47.178;15.316;2023-04-25T08:41:00;14.10;71.80
21799;DHT22;24973;47.178;15.316;2023-04-25T08:43:51;13.90;74.40
21799;DHT22;24973;47.178;15.316;2023-04-25T08:46:41;13.70;75.50
21799;DHT22;24973;47.178;15.316;2023-04-25T08:49:30;13.60;69.40
21799;DHT22;24973;47.178;15.316;2023-04-25T08:52:22;13.60;70.60
21799;DHT22;24973;47.178;15.316;2023-04-25T08:55:12;13.70;72.90
21799;DHT22;24973;47.178;15.316;2023-04-25T08:58:01;13.70;73.50
21799;DHT22;24973;47.178;15.316;2023-04-25T09:00:52;13.80;72.10
21799;DHT22;24973;47.178;15.316;2023-04-25T09:03:40;13.80;71.50
21799;DHT22;24973;47.178;15.316;2023-04-25T09:06:30;13.70;70.50
21799;DHT22;24973;47.178;15.316;2023-04-25T09:09:21;13.70;69.80
21799;DHT22;24973;47.178;15.316;2023-04-25T09:12:10;13.70;71.20
21799;DHT22;24973;47.178;15.316;2023-04-25T09:15:04;13.70;69.40
21799;DHT22;24973;47.178;15.316;2023-04-25T09:17:57;13.70;68.60
21799;DHT22;24973;47.178;15.316;2023-04-25T09:20:46;13.80;73.00
21799;DHT22;24973;47.178;15.316;2023-04-25T09:23:44;13.90;69.50
21799;DHT22;24973;47.178;15.316;2023-04-25T09:26:34;14.00;68.60
21799;DHT22;24973;47.178;15.316;2023-04-25T09:29:29;14.10;68.30
21799;DHT22;24973;47.178;15.316;2023-04-25T09:32:19;14.30;70.10
21799;DHT22;24973;47.178;15.316;2023-04-25T09:35:10;14.50;68.60
21799;DHT22;24973;47.178;15.316;2023-04-25T09:38:13;14.70;68.50
21799;DHT22;24973;47.178;15.316;2023-04-25T09:41:05;14.80;70.20
21799;DHT22;24973;47.178;15.316;2023-04-25T09:43:56;15.00;70.60
21799;DHT22;24973;47.178;15.316;2023-04-25T09:46:49;15.20;69.50
21799;DHT22;24973;47.178;15.316;2023-04-25T09:49:41;15.20;66.60
21799;DHT22;24973;47.178;15.316;2023-04-25T09:52:32;15.10;65.30
21799;DHT22;24973;47.178;15.316;2023-04-25T09:55:20;15.20;64.60
21799;DHT22;24973;47.178;15.316;2023-04-25T09:58:11;15.30;67.90
21799;DHT22;24973;47.178;15.316;2023-04-25T10:01:01;15.40;63.30
21799;DHT22;24973;47.178;15.316;2023-04-25T10:03:51;15.20;65.40
21799;DHT22;24973;47.178;15.316;2023-04-25T10:06:43;15.30;65.50
21799;DHT22;24973;47.178;15.316;2023-04-25T10:09:36;15.40;65.90
21799;DHT22;24973;47.178;15.316;2023-04-25T10:12:26;15.60;64.00
21799;DHT22;24973;47.178;15.316;2023-04-25T10:15:15;15.40;62.80
21799;DHT22;24973;47.178;15.316;2023-04-25T10:18:05;15.40;61.30
21799;DHT22;24973;47.178;15.316;2023-04-25T10:20:55;15.50;62.60
21799;DHT22;24973;47.178;15.316;2023-04-25T10:23:45;15.60;62.60
21799;DHT22;24973;47.178;15.316;2023-04-25T10:26:36;16.00;65.10
21799;DHT22;24973;47.178;15.316;2023-04-25T10:29:25;16.10;61.50
21799;DHT22;24973;47.178;15.316;2023-04-25T10:32:14;16.20;61.30
21799;DHT22;24973;47.178;15.316;2023-04-25T10:35:13;16.30;62.10
21799;DHT22;24973;47.178;15.316;2023-04-25T10:38:05;16.40;62.20
21799;DHT22;24973;47.178;15.316;2023-04-25T10:41:03;16.30;60.30
21799;DHT22;24973;47.178;15.316;2023-04-25T10:44:00;16.10;58.80
21799;DHT22;24973;47.178;15.316;2023-04-25T10:46:49;16.00;59.90
21799;DHT22;24973;47.178;15.316;2023-04-25T10:49:41;15.80;59.70
21799;DHT22;24973;47.178;15.316;2023-04-25T10:52:33;15.60;60.10
21799;DHT22;24973;47.178;15.316;2023-04-25T10:55:22;15.50;60.70
21799;DHT22;24973;47.178;15.316;2023-04-25T10:58:11;15.60;60.70
21799;DHT22;24973;47.178;15.316;2023-04-25T11:01:01;15.60;60.70
21799;DHT22;24973;47.178;15.316;2023-04-25T11:03:57;15.70;61.40
21799;DHT22;24973;47.178;15.316;2023-04-25T11:07:00;15.90;62.50
21799;DHT22;24973;47.178;15.316;2023-04-25T11:09:54;15.80;59.60
21799;DHT22;24973;47.178;15.316;2023-04-25T11:12:42;15.90;60.30
21799;DHT22;24973;47.178;15.316;2023-04-25T11:15:32;16.10;59.10
21799;DHT22;24973;47.178;15.316;2023-04-25T11:18:26;15.90;59.70
21799;DHT22;24973;47.178;15.316;2023-04-25T11:21:15;15.70;62.30
21799;DHT22;24973;47.178;15.316;2023-04-25T11:24:04;15.40;64.60
21799;DHT22;24973;47.178;15.316;2023-04-25T11:26:53;15.30;66.30
21799;DHT22;24973;47.178;15.316;2023-04-25T11:29:42;15.10;67.70
21799;DHT22;24973;47.178;15.316;2023-04-25T11:32:31;14.90;68.00
21799;DHT22;24973;47.178;15.316;2023-04-25T11:35:21;14.90;68.50
21799;DHT22;24973;47.178;15.316;2023-04-25T11:38:12;14.70;70.30
21799;DHT22;24973;47.178;15.316;2023-04-25T11:41:01;14.80;70.10
21799;DHT22;24973;47.178;15.316;2023-04-25T11:43:49;15.00;70.90
21799;DHT22;24973;47.178;15.316;2023-04-25T11:46:39;15.30;68.90
21799;DHT22;24973;47.178;15.316;2023-04-25T11:49:30;15.50;70.80
21799;DHT22;24973;47.178;15.316;2023-04-25T11:52:21;15.40;68.90
21799;DHT22;24973;47.178;15.316;2023-04-25T11:55:12;15.20;70.00
21799;DHT22;24973;47.178;15.316;2023-04-25T11:58:02;15.30;70.80
21799;DHT22;24973;47.178;15.316;2023-04-25T12:00:51;15.60;70.90
21799;DHT22;24973;47.178;15.316;2023-04-25T12:03:45;15.70;72.10
21799;DHT22;24973;47.178;15.316;2023-04-25T12:06:37;16.00;69.40
21799;DHT22;24973;47.178;15.316;2023-04-25T12:09:33;16.40;68.80
21799;DHT22;24973;47.178;15.316;2023-04-25T12:12:22;16.80;66.40
21799;DHT22;24973;47.178;15.316;2023-04-25T12:15:16;17.80;66.10
21799;DHT22;24973;47.178;15.316;2023-04-25T12:18:07;17.10;65.10
21799;DHT22;24973;47.178;15.316;2023-04-25T12:20:55;17.00;64.50
21799;DHT22;24973;47.178;15.316;2023-04-25T12:23:44;17.20;65.20
21799;DHT22;24973;47.178;15.316;2023-04-25T12:26:47;17.00;60.70
21799;DHT22;24973;47.178;15.316;2023-04-25T12:29:37;16.90;60.10
21799;DHT22;24973;47.178;15.316;2023-04-25T12:32:34;16.70;60.60
21799;DHT22;24973;47.178;15.316;2023-04-25T12:35:23;16.60;61.80
21799;DHT22;24973;47.178;15.316;2023-04-25T12:38:20;16.70;62.10
21799;DHT22;24973;47.178;15.316;2023-04-25T12:41:10;16.50;60.00
21799;DHT22;24973;47.178;15.316;2023-04-25T12:44:00;16.40;60.90
21799;DHT22;24973;47.178;15.316;2023-04-25T12:46:49;16.50;61.40
21799;DHT22;24973;47.178;15.316;2023-04-25T12:49:38;16.40;61.70
21799;DHT22;24973;47.178;15.316;2023-04-25T12:52:26;16.60;62.70
21799;DHT22;24973;47.178;15.316;2023-04-25T12:55:15;16.80;61.60
21799;DHT22;24973;47.178;15.316;2023-04-25T12:58:06;16.70;58.80
21799;DHT22;24973;47.178;15.316;2023-04-25T13:01:03;16.80;58.60
21799;DHT22;24973;47.178;15.316;2023-04-25T13:03:52;16.50;58.10
21799;DHT22;24973;47.178;15.316;2023-04-25T13:06:41;16.20;58.90
21799;DHT22;24973;47.178;15.316;2023-04-25T13:09:29;16.20;58.30
21799;DHT22;24973;47.178;15.316;2023-04-25T13:12:18;16.10;58.80
21799;DHT22;24973;47.178;15.316;2023-04-25T13:15:08;16.20;58.20
21799;DHT22;24973;47.178;15.316;2023-04-25T13:17:59;16.50;58.30
21799;DHT22;24973;47.178;15.316;2023-04-25T13:20:48;17.00;58.30
21799;DHT22;24973;47.178;15.316;2023-04-25T13:23:37;17.20;57.40
21799;DHT22;24973;47.178;15.316;2023-04-25T13:26:27;17.20;57.00
21799;DHT22;24973;47.178;15.316;2023-04-25T13:29:15;17.30;57.50
21799;DHT22;24973;47.178;15.316;2023-04-25T13:32:04;17.20;56.70
21799;DHT22;24973;47.178;15.316;2023-04-25T13:34:54;17.10;57.40
21799;DHT22;24973;47.178;15.316;2023-04-25T13:37:43;17.40;56.90
21799;DHT22;24973;47.178;15.316;2023-04-25T13:40:32;17.40;55.40
21799;DHT22;24973;47.178;15.316;2023-04-25T13:43:21;17.20;56.80
21799;DHT22;24973;47.178;15.316;2023-04-25T13:46:10;17.30;56.60
21799;DHT22;24973;47.178;15.316;2023-04-25T13:49:06;17.30;56.00
21799;DHT22;24973;47.178;15.316;2023-04-25T13:51:59;17.30;55.40
21799;DHT22;24973;47.178;15.316;2023-04-25T13:54:48;17.20;54.10
21799;DHT22;24973;47.178;15.316;2023-04-25T13:57:36;16.90;55.10
21799;DHT22;24973;47.178;15.316;2023-04-25T14:00:26;16.80;55.20
21799;DHT22;24973;47.178;15.316;2023-04-25T14:03:16;16.30;55.20
21799;DHT22;24973;47.178;15.316;2023-04-25T14:06:05;15.90;56.80
21799;DHT22;24973;47.178;15.316;2023-04-25T14:08:56;15.80;56.60
21799;DHT22;24973;47.178;15.316;2023-04-25T14:11:45;15.60;57.50
21799;DHT22;24973;47.178;15.316;2023-04-25T14:14:34;15.50;57.40
21799;DHT22;24973;47.178;15.316;2023-04-25T14:17:22;15.70;58.30
21799;DHT22;24973;47.178;15.316;2023-04-25T14:20:11;15.70;58.60
21799;DHT22;24973;47.178;15.316;2023-04-25T14:23:00;16.00;59.60
21799;DHT22;24973;47.178;15.316;2023-04-25T14:25:51;16.10;58.30
21799;DHT22;24973;47.178;15.316;2023-04-25T14:28:39;16.10;58.50
21799;DHT22;24973;47.178;15.316;2023-04-25T14:31:28;16.00;59.50
21799;DHT22;24973;47.178;15.316;2023-04-25T14:34:17;16.00;59.50
21799;DHT22;24973;47.178;15.316;2023-04-25T14:37:06;16.20;58.80
21799;DHT22;24973;47.178;15.316;2023-04-25T14:39:54;16.70;58.40
21799;DHT22;24973;47.178;15.316;2023-04-25T14:42:44;17.00;58.50
21799;DHT22;24973;47.178;15.316;2023-04-25T14:45:33;17.30;59.30
21799;DHT22;24973;47.178;15.316;2023-04-25T14:48:22;17.50;58.00
21799;DHT22;24973;47.178;15.316;2023-04-25T14:51:11;17.80;59.60
21799;DHT22;24973;47.178;15.316;2023-04-25T14:54:00;18.00;59.20
21799;DHT22;24973;47.178;15.316;2023-04-25T14:56:48;18.30;58.80
21799;DHT22;24973;47.178;15.316;2023-04-25T14:59:39;18.50;57.30
21799;DHT22;24973;47.178;15.316;2023-04-25T15:02:28;18.60;57.10
21799;DHT22;24973;47.178;15.316;2023-04-25T15:05:17;18.70;55.90
21799;DHT22;24973;47.178;15.316;2023-04-25T15:08:06;18.70;57.10
21799;DHT22;24973;47.178;15.316;2023-04-25T15:10:55;19.00;56.70
21799;DHT22;24973;47.178;15.316;2023-04-25T15:13:44;19.10;54.60
21799;DHT22;24973;47.178;15.316;2023-04-25T15:16:34;19.40;54.70
21799;DHT22;24973;47.178;15.316;2023-04-25T15:19:23;19.60;55.00
21799;DHT22;24973;47.178;15.316;2023-04-25T15:22:11;19.60;54.50
21799;DHT22;24973;47.178;15.316;2023-04-25T15:25:00;18.90;53.20
21799;DHT22;24973;47.178;15.316;2023-04-25T15:27:49;18.50;54.30
21799;DHT22;24973;47.178;15.316;2023-04-25T15:30:38;18.00;55.10
21799;DHT22;24973;47.178;15.316;2023-04-25T15:33:28;17.80;54.10
21799;DHT22;24973;47.178;15.316;2023-04-25T15:36:17;17.90;55.00
21799;DHT22;24973;47.178;15.316;2023-04-25T15:39:07;18.60;54.90
21799;DHT22;24973;47.178;15.316;2023-04-25T15:41:56;19.40;53.60
21799;DHT22;24973;47.178;15.316;2023-04-25T15:44:46;20.90;52.90
21799;DHT22;24973;47.178;15.316;2023-04-25T15:47:35;21.00;50.20
21799;DHT22;24973;47.178;15.316;2023-04-25T15:50:26;21.00;48.80
21799;DHT22;24973;47.178;15.316;2023-04-25T15:53:15;20.50;48.90
21799;DHT22;24973;47.178;15.316;2023-04-25T15:56:04;20.20;50.20
21799;DHT22;24973;47.178;15.316;2023-04-25T15:58:53;20.60;50.40
21799;DHT22;24973;47.178;15.316;2023-04-25T16:01:41;21.10;48.80
21799;DHT22;24973;47.178;15.316;2023-04-25T16:04:31;21.10;47.40
21799;DHT22;24973;47.178;15.316;2023-04-25T16:07:22;20.70;47.50
21799;DHT22;24973;47.178;15.316;2023-04-25T16:10:12;20.40;47.50
21799;DHT22;24973;47.178;15.316;2023-04-25T16:13:03;20.20;47.00
21799;DHT22;24973;47.178;15.316;2023-04-25T16:15:52;19.80;48.10
21799;DHT22;24973;47.178;15.316;2023-04-25T16:18:40;19.30;47.90
21799;DHT22;24973;47.178;15.316;2023-04-25T16:21:29;18.70;49.30
21799;DHT22;24973;47.178;15.316;2023-04-25T16:24:19;17.90;50.20
21799;DHT22;24973;47.178;15.316;2023-04-25T16:27:08;17.40;51.30
21799;DHT22;24973;47.178;15.316;2023-04-25T16:29:57;17.50;52.60
21799;DHT22;24973;47.178;15.316;2023-04-25T16:32:45;16.30;51.80
21799;DHT22;24973;47.178;15.316;2023-04-25T16:35:34;16.00;53.60
21799;DHT22;24973;47.178;15.316;2023-04-25T16:38:23;15.70;53.40
21799;DHT22;24973;47.178;15.316;2023-04-25T16:41:13;15.40;54.30
21799;DHT22;24973;47.178;15.316;2023-04-25T16:44:02;15.20;54.80
21799;DHT22;24973;47.178;15.316;2023-04-25T16:46:52;14.90;54.60
21799;DHT22;24973;47.178;15.316;2023-04-25T16:49:41;14.70;55.60
21799;DHT22;24973;47.178;15.316;2023-04-25T16:52:32;14.50;56.20
21799;DHT22;24973;47.178;15.316;2023-04-25T16:55:20;14.30;57.30
21799;DHT22;24973;47.178;15.316;2023-04-25T16:58:10;14.10;57.40
21799;DHT22;24973;47.178;15.316;2023-04-25T17:01:00;13.90;58.40
21799;DHT22;24973;47.178;15.316;2023-04-25T17:03:49;13.70;59.80
21799;DHT22;24973;47.178;15.316;2023-04-25T17:06:38;13.50;59.40
21799;DHT22;24973;47.178;15.316;2023-04-25T17:09:26;13.40;60.50
21799;DHT22;24973;47.178;15.316;2023-04-25T17:12:15;13.30;61.50
21799;DHT22;24973;47.178;15.316;2023-04-25T17:15:08;13.20;61.30
21799;DHT22;24973;47.178;15.316;2023-04-25T17:17:57;13.10;62.90
21799;DHT22;24973;47.178;15.316;2023-04-25T17:20:46;13.00;63.50
21799;DHT22;24973;47.178;15.316;2023-04-25T17:23:35;12.90;64.80
21799;DHT22;24973;47.178;15.316;2023-04-25T17:26:24;12.70;62.80
21799;DHT22;24973;47.178;15.316;2023-04-25T17:29:13;12.50;62.70
21799;DHT22;24973;47.178;15.316;2023-04-25T17:32:03;12.50;62.80
21799;DHT22;24973;47.178;15.316;2023-04-25T17:34:52;12.50;63.80
21799;DHT22;24973;47.178;15.316;2023-04-25T17:37:41;12.40;65.00
21799;DHT22;24973;47.178;15.316;2023-04-25T17:40:31;12.30;64.20
21799;DHT22;24973;47.178;15.316;2023-04-25T17:43:20;12.20;65.80